createdAt,value
2023-03-07T00:01:26.802Z,98.90
2023-03-07T00:03:55.319Z,99.10
2023-03-07T00:06:25.729Z,99.10
2023-03-07T00:08:56.703Z,99.10
2023-03-07T00:11:25.062Z,99.10
2023-03-07T00:13:53.767Z,99.20
2023-03-07T00:16:24.079Z,99.20
2023-03-07T00:18:52.634Z,99.20
2023-03-07T00:21:22.984Z,99.20
2023-03-07T00:23:54.218Z,99.20
2023-03-07T00:26:24.410Z,99.10
2023-03-07T00:28:54.756Z,99.10
2023-03-07T00:31:24.357Z,99.10
2023-03-07T00:33:52.779Z,99.10
2023-03-07T00:36:22.887Z,99.00
2023-03-07T00:38:53.141Z,99.00
2023-03-07T00:41:22.744Z,99.00
2023-03-07T00:43:51.456Z,98.90
2023-03-07T00:46:21.540Z,98.80
2023-03-07T00:48:50.123Z,98.70
2023-03-07T00:51:20.042Z,98.70
2023-03-07T00:53:48.414Z,98.60
2023-03-07T00:56:19.840Z,98.60
2023-03-07T00:58:48.787Z,98.50
2023-03-07T01:01:20.261Z,98.50
2023-03-07T01:03:50.287Z,98.40
2023-03-07T01:06:20.843Z,98.30
2023-03-07T01:08:49.318Z,98.20
2023-03-07T01:11:19.118Z,98.10
2023-03-07T01:13:47.415Z,98.10
2023-03-07T01:16:18.132Z,98.10
2023-03-07T01:18:49.905Z,97.90
2023-03-07T01:21:20.470Z,98.00
2023-03-07T01:23:49.123Z,98.00
2023-03-07T01:26:20.672Z,98.00
2023-03-07T01:28:49.405Z,97.90
2023-03-07T01:31:17.757Z,97.90
2023-03-07T01:33:47.988Z,98.10
2023-03-07T01:36:19.929Z,97.80
2023-03-07T01:38:49.744Z,97.70
2023-03-07T01:41:19.880Z,97.70
2023-03-07T01:43:48.432Z,97.60
2023-03-07T01:46:40.094Z,97.60
2023-03-07T01:49:12.980Z,97.70
2023-03-07T01:51:45.632Z,97.70
2023-03-07T01:54:17.734Z,97.80
2023-03-07T01:56:48.809Z,98.20
2023-03-07T01:59:25.887Z,98.00
2023-03-07T02:01:54.650Z,98.00
2023-03-07T02:04:28.081Z,98.10
2023-03-07T02:06:56.417Z,98.10
2023-03-07T02:09:28.126Z,98.10
2023-03-07T02:11:58.120Z,98.20
2023-03-07T02:14:26.732Z,98.30
2023-03-07T02:16:55.432Z,98.40
2023-03-07T02:19:49.839Z,98.50
2023-03-07T02:22:20.007Z,98.60
2023-03-07T02:24:54.024Z,98.70
2023-03-07T02:27:25.772Z,98.80
2023-03-07T02:29:54.336Z,98.80
2023-03-07T02:32:23.001Z,98.90
2023-03-07T02:34:51.302Z,98.90
2023-03-07T02:37:23.520Z,99.40
2023-03-07T02:39:52.056Z,99.10
2023-03-07T02:42:26.533Z,99.20
2023-03-07T02:44:59.094Z,99.40
2023-03-07T02:47:28.090Z,99.50
2023-03-07T02:49:56.930Z,99.50
2023-03-07T02:52:27.998Z,99.70
2023-03-07T02:54:56.280Z,99.90
2023-03-07T02:57:26.047Z,99.90
2023-03-07T02:59:54.371Z,99.90
2023-03-07T03:02:22.873Z,99.90
2023-03-07T03:04:51.215Z,99.90
2023-03-07T03:07:19.515Z,99.90
2023-03-07T03:09:47.902Z,99.80
2023-03-07T03:12:16.245Z,99.60
2023-03-07T03:14:45.875Z,99.50
2023-03-07T03:17:14.222Z,99.40
2023-03-07T03:19:42.460Z,99.30
2023-03-07T03:22:10.841Z,99.20
2023-03-07T03:24:40.824Z,99.10
2023-03-07T03:27:09.818Z,99.10
2023-03-07T03:29:38.249Z,99.10
2023-03-07T03:32:08.733Z,99.20
2023-03-07T03:34:37.176Z,99.30
2023-03-07T03:37:05.467Z,99.30
2023-03-07T03:39:33.785Z,99.30
2023-03-07T03:42:02.024Z,99.30
2023-03-07T03:44:30.578Z,99.30
2023-03-07T03:46:58.911Z,99.20
2023-03-07T03:49:28.727Z,99.00
2023-03-07T03:51:57.069Z,98.90
2023-03-07T03:54:25.416Z,98.80
2023-03-07T03:56:55.095Z,98.70
2023-03-07T03:59:23.474Z,98.70
2023-03-07T04:01:52.612Z,98.60
2023-03-07T04:04:21.012Z,98.60
2023-03-07T04:06:51.122Z,98.80
2023-03-07T04:09:19.436Z,98.90
2023-03-07T04:11:47.769Z,98.90
2023-03-07T04:14:16.042Z,98.90
2023-03-07T04:16:44.486Z,99.00
2023-03-07T04:19:13.161Z,99.00
2023-03-07T04:21:41.582Z,99.00
2023-03-07T04:24:11.476Z,99.00
2023-03-07T04:26:39.889Z,99.10
2023-03-07T04:29:08.203Z,99.20
2023-03-07T04:31:36.479Z,99.30
2023-03-07T04:34:04.788Z,99.30
2023-03-07T04:36:33.122Z,99.30
2023-03-07T04:39:01.436Z,99.50
2023-03-07T04:41:31.155Z,99.50
2023-03-07T04:43:59.530Z,99.50
2023-03-07T04:46:28.291Z,99.50
2023-03-07T04:48:56.559Z,99.60
2023-03-07T04:51:25.284Z,99.60
2023-03-07T04:53:53.484Z,99.60
2023-03-07T04:56:21.754Z,99.70
2023-03-07T04:58:51.399Z,99.70
2023-03-07T05:01:19.801Z,99.80
2023-03-07T05:03:48.210Z,99.80
2023-03-07T05:06:17.893Z,99.90
2023-03-07T05:08:46.165Z,99.90
2023-03-07T05:11:14.663Z,99.90
2023-03-07T05:13:42.955Z,99.90
2023-03-07T05:16:12.695Z,99.90
2023-03-07T05:18:40.958Z,99.90
2023-03-07T05:21:09.211Z,99.90
2023-03-07T05:23:37.540Z,99.90
2023-03-07T05:26:06.073Z,99.90
2023-03-07T05:28:34.438Z,99.90
2023-03-07T05:31:02.794Z,99.90
2023-03-07T05:33:32.911Z,99.90
2023-03-07T05:36:02.029Z,99.90
2023-03-07T05:38:30.437Z,99.90
2023-03-07T05:40:58.778Z,99.90
2023-03-07T05:43:27.583Z,99.90
2023-03-07T05:45:55.840Z,99.90
2023-03-07T05:48:24.063Z,99.90
2023-03-07T05:50:53.780Z,99.90
2023-03-07T05:53:22.344Z,99.90
2023-03-07T05:55:50.594Z,99.90
2023-03-07T05:58:18.862Z,99.90
2023-03-07T06:00:47.285Z,99.90
2023-03-07T06:03:15.564Z,99.90
2023-03-07T06:05:45.164Z,99.90
2023-03-07T06:08:14.848Z,99.90
2023-03-07T06:10:43.242Z,99.90
2023-03-07T06:13:16.666Z,99.90
2023-03-07T06:15:44.940Z,99.90
2023-03-07T06:18:14.776Z,99.90
2023-03-07T06:20:43.044Z,99.90
2023-03-07T06:23:13.277Z,99.90
2023-03-07T06:25:43.121Z,99.90
2023-03-07T06:28:11.390Z,99.90
2023-03-07T06:30:39.850Z,99.90
2023-03-07T06:33:08.222Z,99.90
2023-03-07T06:35:40.246Z,99.90
2023-03-07T06:38:08.846Z,99.90
2023-03-07T06:40:37.702Z,99.90
2023-03-07T06:43:07.462Z,99.90
2023-03-07T06:45:36.004Z,99.90
2023-03-07T06:48:04.303Z,99.90
2023-03-07T06:50:35.374Z,99.90
2023-03-07T06:53:04.107Z,99.90
2023-03-07T06:55:32.383Z,99.90
2023-03-07T06:58:00.707Z,99.90
2023-03-07T07:00:30.472Z,99.90
2023-03-07T07:02:59.093Z,99.90
2023-03-07T07:05:27.785Z,99.90
2023-03-07T07:07:56.065Z,99.90
2023-03-07T07:10:24.356Z,99.90
2023-03-07T07:12:56.678Z,99.90
2023-03-07T07:15:25.036Z,99.90
2023-03-07T07:17:54.848Z,99.90
2023-03-07T07:20:23.194Z,99.90
2023-03-07T07:22:51.475Z,99.90
2023-03-07T07:25:19.873Z,99.90
2023-03-07T07:27:48.821Z,99.90
2023-03-07T07:30:17.782Z,99.90
2023-03-07T07:32:46.391Z,99.90
2023-03-07T07:35:16.355Z,99.90
2023-03-07T07:37:44.729Z,99.90
2023-03-07T07:40:15.288Z,99.90
2023-03-07T07:42:44.612Z,99.90
2023-03-07T07:45:13.321Z,99.90
2023-03-07T07:47:41.663Z,99.90
2023-03-07T07:50:11.084Z,99.90
2023-03-07T07:52:40.787Z,99.90
2023-03-07T07:55:10.369Z,99.90
2023-03-07T07:57:38.680Z,99.90
2023-03-07T08:00:09.616Z,99.90
2023-03-07T08:02:38.202Z,99.90
2023-03-07T08:05:10.362Z,99.90
2023-03-07T08:07:40.064Z,99.90
2023-03-07T08:10:09.937Z,99.90
2023-03-07T08:12:38.156Z,99.90
2023-03-07T08:15:08.016Z,99.90
2023-03-07T08:17:36.253Z,99.90
2023-03-07T08:20:09.265Z,99.90
2023-03-07T08:22:38.049Z,99.90
2023-03-07T08:25:09.404Z,99.90
2023-03-07T08:27:37.798Z,99.90
2023-03-07T08:30:06.853Z,99.90
2023-03-07T08:32:35.262Z,99.90
2023-03-07T08:35:04.091Z,99.90
2023-03-07T08:37:32.355Z,99.90
2023-03-07T08:40:00.719Z,99.90
2023-03-07T08:42:30.549Z,99.90
2023-03-07T08:44:58.770Z,99.90
2023-03-07T08:47:27.249Z,99.90
2023-03-07T08:49:55.589Z,99.90
2023-03-07T08:52:23.916Z,99.90
2023-03-07T08:54:52.166Z,99.90
2023-03-07T08:57:20.442Z,99.90
2023-03-07T08:59:50.081Z,99.90
2023-03-07T09:02:18.655Z,99.90
2023-03-07T09:04:47.075Z,99.90
2023-03-07T09:07:15.404Z,99.90
2023-03-07T09:09:44.099Z,99.90
2023-03-07T09:12:13.761Z,99.90
2023-03-07T09:14:43.178Z,99.90
2023-03-07T09:17:13.035Z,99.90
2023-03-07T09:19:42.592Z,99.90
2023-03-07T09:22:10.839Z,99.90
2023-03-07T09:24:39.092Z,99.90
2023-03-07T09:27:07.427Z,99.90
2023-03-07T09:29:35.729Z,99.90
2023-03-07T09:32:04.864Z,99.90
2023-03-07T09:34:34.604Z,99.90
2023-03-07T09:37:03.271Z,99.90
2023-03-07T09:39:31.587Z,99.90
2023-03-07T09:42:11.956Z,99.90
2023-03-07T09:45:08.851Z,99.90
2023-03-07T09:48:05.326Z,99.90
2023-03-07T09:50:42.467Z,99.90
2023-03-07T09:53:19.189Z,99.90
2023-03-07T09:55:51.373Z,99.90
2023-03-07T09:58:24.752Z,99.90
2023-03-07T10:00:57.858Z,99.90
2023-03-07T10:03:34.389Z,99.90
2023-03-07T10:06:11.844Z,99.90
2023-03-07T10:08:40.173Z,99.90
2023-03-07T10:11:23.337Z,99.90
2023-03-07T10:14:10.919Z,99.90
2023-03-07T10:19:38.194Z,99.90
2023-03-07T10:22:14.739Z,99.90
2023-03-07T10:25:11.683Z,99.90
2023-03-07T10:27:40.395Z,99.90
2023-03-07T10:30:17.080Z,99.90
2023-03-07T10:32:47.573Z,99.90
2023-03-07T10:35:21.092Z,99.90
2023-03-07T10:37:51.603Z,99.90
2023-03-07T10:40:26.211Z,99.90
2023-03-07T10:42:55.869Z,99.90
2023-03-07T10:45:24.234Z,99.90
2023-03-07T10:47:52.426Z,99.30
2023-03-07T10:50:43.825Z,98.60
2023-03-07T10:53:25.990Z,98.50
2023-03-07T10:56:09.462Z,98.40
2023-03-07T10:58:37.831Z,98.50
2023-03-07T11:01:19.482Z,98.80
2023-03-07T11:03:55.316Z,99.10
2023-03-07T11:06:36.051Z,99.20
2023-03-07T11:09:26.445Z,99.00
2023-03-07T11:11:58.035Z,98.70
2023-03-07T11:14:28.034Z,98.60
2023-03-07T11:16:59.332Z,98.40
2023-03-07T11:19:34.218Z,98.30
2023-03-07T11:22:04.894Z,98.10
2023-03-07T11:24:38.466Z,97.70
2023-03-07T11:27:07.390Z,97.70
2023-03-07T11:29:35.642Z,97.40
2023-03-07T11:32:15.712Z,97.30
2023-03-07T11:34:51.871Z,97.90
2023-03-07T11:37:30.816Z,98.10
2023-03-07T11:40:19.724Z,97.30
2023-03-07T11:43:00.593Z,97.20
2023-03-07T11:45:36.083Z,97.40
2023-03-07T11:48:17.336Z,97.50
2023-03-07T11:50:54.753Z,97.70
2023-03-07T11:53:33.932Z,97.50
2023-03-07T11:56:25.990Z,97.30
2023-03-07T11:59:38.780Z,97.50
2023-03-07T12:02:28.616Z,97.80
2023-03-07T12:05:12.976Z,97.40
2023-03-07T12:08:30.243Z,97.30
2023-03-07T12:11:13.091Z,97.00
2023-03-07T12:13:54.633Z,96.90
2023-03-07T12:16:32.483Z,97.20
2023-03-07T12:19:25.967Z,97.60
2023-03-07T12:22:18.145Z,97.00
2023-03-07T12:25:01.541Z,96.60
2023-03-07T12:27:36.141Z,95.20
2023-03-07T12:30:08.461Z,94.60
2023-03-07T12:32:39.053Z,94.20
2023-03-07T12:35:17.783Z,94.50
2023-03-07T12:37:52.244Z,94.40
2023-03-07T12:40:22.929Z,94.90
2023-03-07T12:42:57.221Z,95.10
2023-03-07T12:45:28.330Z,95.30
2023-03-07T12:48:08.822Z,95.40
2023-03-07T12:50:46.956Z,95.50
2023-03-07T12:53:22.677Z,95.50
2023-03-07T12:55:56.364Z,95.30
2023-03-07T12:58:38.301Z,95.60
2023-03-07T13:01:15.139Z,96.00
2023-03-07T13:03:50.217Z,95.10
2023-03-07T13:06:21.881Z,95.40
2023-03-07T13:08:52.743Z,96.00
2023-03-07T13:11:23.920Z,96.50
2023-03-07T13:13:55.828Z,96.70
2023-03-07T13:16:36.388Z,97.00
2023-03-07T13:19:44.610Z,97.20
2023-03-07T13:22:50.445Z,97.40
2023-03-07T13:25:52.118Z,97.50
2023-03-07T13:28:38.845Z,97.60
2023-03-07T13:31:30.411Z,97.50
2023-03-07T13:34:39.505Z,97.90
2023-03-07T13:37:44.306Z,98.20
2023-03-07T13:40:29.089Z,98.30
2023-03-07T13:42:58.338Z,98.60
2023-03-07T13:45:49.137Z,98.80
2023-03-07T13:48:50.053Z,99.80
2023-03-07T13:51:19.847Z,99.90
2023-03-07T13:53:50.776Z,99.90
2023-03-07T13:56:26.539Z,99.90
2023-03-07T13:58:59.008Z,99.90
2023-03-07T14:01:33.106Z,99.90
2023-03-07T14:04:09.417Z,99.90
2023-03-07T14:06:42.497Z,99.90
2023-03-07T14:09:16.514Z,99.90
2023-03-07T14:11:50.756Z,99.90
2023-03-07T14:14:47.130Z,99.90
2023-03-07T14:17:28.958Z,99.90
2023-03-07T14:20:09.693Z,99.90
2023-03-07T14:22:56.721Z,99.90
2023-03-07T14:25:27.342Z,99.90
2023-03-07T14:27:58.145Z,99.90
2023-03-07T14:30:28.837Z,99.90
2023-03-07T14:32:57.982Z,99.90
2023-03-07T14:35:37.569Z,99.90
2023-03-07T14:38:11.002Z,99.90
2023-03-07T14:40:50.400Z,99.90
2023-03-07T14:43:40.052Z,99.90
2023-03-07T14:46:14.846Z,99.90
2023-03-07T14:48:56.461Z,99.90
2023-03-07T14:51:28.284Z,99.90
2023-03-07T14:53:58.536Z,99.90
2023-03-07T14:56:29.445Z,99.90
2023-03-07T14:59:01.171Z,99.90
2023-03-07T15:01:35.423Z,99.90
2023-03-07T15:04:05.145Z,99.90
2023-03-07T15:06:43.112Z,99.90
2023-03-07T15:09:13.015Z,99.90
2023-03-07T15:11:45.930Z,99.90
2023-03-07T15:14:17.554Z,99.90
2023-03-07T15:16:49.461Z,99.90
2023-03-07T15:19:24.279Z,99.90
2023-03-07T15:21:56.051Z,99.90
2023-03-07T15:24:30.473Z,99.90
2023-03-07T15:27:00.344Z,99.90
2023-03-07T15:29:30.873Z,99.90
2023-03-07T15:32:01.499Z,99.90
2023-03-07T15:34:33.505Z,99.90
2023-03-07T15:37:23.007Z,99.90
2023-03-07T15:40:00.484Z,99.90
2023-03-07T15:42:29.985Z,99.90
2023-03-07T15:44:59.865Z,99.90
2023-03-07T15:47:30.020Z,99.90
2023-03-07T15:49:59.985Z,99.90
2023-03-07T15:52:33.683Z,99.90
2023-03-07T15:55:08.093Z,99.90
2023-03-07T15:57:41.190Z,99.90
2023-03-07T16:00:19.109Z,99.90
2023-03-07T16:02:48.648Z,99.90
2023-03-07T16:05:33.082Z,99.90
2023-03-07T16:08:01.513Z,99.90
2023-03-07T16:10:33.029Z,99.90
2023-03-07T16:13:02.813Z,99.90
2023-03-07T16:15:31.324Z,99.90
2023-03-07T16:17:59.638Z,99.90
2023-03-07T16:20:30.055Z,99.90
2023-03-07T16:22:58.568Z,99.90
2023-03-07T16:25:29.727Z,99.90
2023-03-07T16:28:00.867Z,99.90
2023-03-07T16:30:33.279Z,99.90
2023-03-07T16:33:01.604Z,99.90
2023-03-07T16:35:30.362Z,99.90
2023-03-07T16:37:59.285Z,99.90
2023-03-07T16:40:28.856Z,99.90
2023-03-07T16:42:58.996Z,99.90
2023-03-07T16:45:29.890Z,99.90
2023-03-07T16:47:59.872Z,99.90
2023-03-07T16:50:30.893Z,99.90
2023-03-07T16:52:59.770Z,99.90
2023-03-07T16:55:28.455Z,99.90
2023-03-07T16:58:00.957Z,99.90
2023-03-07T17:00:30.273Z,99.90
2023-03-07T17:03:02.172Z,99.90
2023-03-07T17:05:31.445Z,99.90
2023-03-07T17:08:00.258Z,99.90
2023-03-07T17:10:28.924Z,99.90
2023-03-07T17:13:00.404Z,99.90
2023-03-07T17:15:32.231Z,99.90
2023-03-07T17:18:01.914Z,99.90
2023-03-07T17:20:30.794Z,99.80
2023-03-07T17:22:59.475Z,99.70
2023-03-07T17:25:29.122Z,99.70
2023-03-07T17:28:01.675Z,99.70
2023-03-07T17:30:31.847Z,99.60
2023-03-07T17:33:01.036Z,99.50
2023-03-07T17:35:30.671Z,99.30
2023-03-07T17:37:59.066Z,99.40
2023-03-07T17:40:27.382Z,99.70
2023-03-07T17:42:57.458Z,99.90
2023-03-07T17:45:27.356Z,99.90
2023-03-07T17:47:56.046Z,99.60
2023-03-07T17:50:25.127Z,99.50
2023-03-07T17:52:54.515Z,99.60
2023-03-07T17:55:25.059Z,99.70
2023-03-07T17:57:53.755Z,99.70
2023-03-07T18:00:23.193Z,99.60
2023-03-07T18:02:53.386Z,99.50
2023-03-07T18:05:22.132Z,99.30
2023-03-07T18:07:51.595Z,99.30
2023-03-07T18:10:21.101Z,99.20
2023-03-07T18:12:50.894Z,99.30
2023-03-07T18:15:20.541Z,99.60
2023-03-07T18:17:50.632Z,99.90
2023-03-07T18:20:22.725Z,99.90
2023-03-07T18:22:51.655Z,99.90
2023-03-07T18:25:20.237Z,99.90
2023-03-07T18:27:48.806Z,99.90
2023-03-07T18:30:17.807Z,99.90
2023-03-07T18:32:46.741Z,99.90
2023-03-07T18:35:16.906Z,99.90
2023-03-07T18:37:46.609Z,99.90
2023-03-07T18:40:15.588Z,99.90
2023-03-07T18:42:43.963Z,99.90
2023-03-07T18:45:13.152Z,99.90
2023-03-07T18:47:42.007Z,99.90
2023-03-07T18:50:11.992Z,99.90
2023-03-07T18:52:40.335Z,99.90
2023-03-07T18:55:11.025Z,99.90
2023-03-07T18:57:39.332Z,99.90
2023-03-07T19:00:11.511Z,99.90
2023-03-07T19:02:40.457Z,99.90
2023-03-07T19:05:10.794Z,99.90
2023-03-07T19:07:39.148Z,99.90
2023-03-07T19:10:10.382Z,99.90
2023-03-07T19:12:38.692Z,99.90
2023-03-07T19:15:08.089Z,99.90
2023-03-07T19:17:41.185Z,99.90
2023-03-07T19:20:10.805Z,99.90
2023-03-07T19:22:39.258Z,99.90
2023-03-07T19:25:11.017Z,99.90
2023-03-07T19:27:39.554Z,99.90
2023-03-07T19:30:11.355Z,99.90
2023-03-07T19:32:39.865Z,99.90
2023-03-07T19:35:09.136Z,99.90
2023-03-07T19:37:37.836Z,99.90
2023-03-07T19:40:07.546Z,99.90
2023-03-07T19:42:37.336Z,99.90
2023-03-07T19:45:07.481Z,99.90
2023-03-07T19:47:35.762Z,99.90
2023-03-07T19:50:04.318Z,99.90
2023-03-07T19:52:33.027Z,99.90
2023-03-07T19:55:01.381Z,99.90
2023-03-07T19:57:29.636Z,99.90
2023-03-07T19:59:59.539Z,99.90
2023-03-07T20:02:29.481Z,99.90
2023-03-07T20:04:58.908Z,99.90
2023-03-07T20:07:27.650Z,99.90
2023-03-07T20:09:55.926Z,99.90
2023-03-07T20:12:24.162Z,99.90
2023-03-07T20:14:52.398Z,99.90
2023-03-07T20:17:22.124Z,99.90
2023-03-07T20:19:51.959Z,99.90
2023-03-07T20:22:23.787Z,99.90
2023-03-07T20:24:52.951Z,99.90
2023-03-07T20:27:23.956Z,99.90
2023-03-07T20:29:52.398Z,99.90
2023-03-07T20:32:22.239Z,99.90
2023-03-07T20:34:53.579Z,99.90
2023-03-07T20:37:22.139Z,99.90
2023-03-07T20:39:50.540Z,99.90
2023-03-07T20:42:21.499Z,99.90
2023-03-07T20:44:50.095Z,99.90
2023-03-07T20:47:18.421Z,99.90
2023-03-07T20:49:48.145Z,99.90
2023-03-07T20:52:16.529Z,99.90
2023-03-07T20:54:45.752Z,99.90
2023-03-07T20:57:14.202Z,99.90
2023-03-07T20:59:42.768Z,99.90
2023-03-07T21:02:12.167Z,99.90
2023-03-07T21:04:40.809Z,99.90
2023-03-07T21:07:10.457Z,99.90
2023-03-07T21:09:38.715Z,99.90
2023-03-07T21:12:08.694Z,99.90
2023-03-07T21:14:37.280Z,99.90
2023-03-07T21:17:06.056Z,99.90
2023-03-07T21:19:34.862Z,99.90
2023-03-07T21:22:03.379Z,99.90
2023-03-07T21:24:33.743Z,99.90
2023-03-07T21:27:03.262Z,99.90
2023-03-07T21:29:31.829Z,99.90
2023-03-07T21:32:00.703Z,99.90
2023-03-07T21:34:29.314Z,99.90
2023-03-07T21:36:57.759Z,99.90
2023-03-07T21:39:26.795Z,99.90
2023-03-07T21:41:56.824Z,99.90
2023-03-07T21:44:25.197Z,99.90
2023-03-07T21:46:54.186Z,99.90
2023-03-07T21:49:22.435Z,99.90
2023-03-07T21:51:51.234Z,99.90
2023-03-07T21:54:19.583Z,99.90
2023-03-07T21:56:48.182Z,99.90
2023-03-07T21:59:17.935Z,99.90
2023-03-07T22:01:46.742Z,99.90
2023-03-07T22:04:15.127Z,99.90
2023-03-07T22:06:44.395Z,99.90
2023-03-07T22:09:12.884Z,99.90
2023-03-07T22:11:41.375Z,99.90
2023-03-07T22:14:09.720Z,99.90
2023-03-07T22:16:39.585Z,99.90
2023-03-07T22:19:08.087Z,99.90
2023-03-07T22:21:36.637Z,99.90
2023-03-07T22:24:05.338Z,99.90
2023-03-07T22:26:34.288Z,99.90
2023-03-07T22:29:03.559Z,99.90
2023-03-07T22:31:32.081Z,99.90
2023-03-07T22:34:02.130Z,99.90
2023-03-07T22:36:30.439Z,99.90
2023-03-07T22:38:58.941Z,99.90
2023-03-07T22:41:28.220Z,99.90
2023-03-07T22:43:56.855Z,99.90
2023-03-07T22:46:25.421Z,99.90
2023-03-07T22:48:55.307Z,99.90
2023-03-07T22:51:26.502Z,99.90
2023-03-07T22:53:55.031Z,99.90
2023-03-07T22:56:25.195Z,99.90
2023-03-07T22:58:54.113Z,99.90
2023-03-07T23:01:24.661Z,99.90
2023-03-07T23:03:54.666Z,99.90
2023-03-07T23:06:25.854Z,99.90
2023-03-07T23:08:54.764Z,99.90
2023-03-07T23:11:25.199Z,99.90
2023-03-07T23:13:54.281Z,99.90
2023-03-07T23:16:24.270Z,99.90
2023-03-07T23:18:55.025Z,99.90
2023-03-07T23:21:27.788Z,99.90
2023-03-07T23:23:57.122Z,99.90
2023-03-07T23:26:27.566Z,99.90
2023-03-07T23:28:58.082Z,99.90
2023-03-07T23:31:28.921Z,99.90
2023-03-07T23:33:57.989Z,99.90
2023-03-07T23:36:29.461Z,99.90
2023-03-07T23:38:58.402Z,99.90
2023-03-07T23:41:27.883Z,99.90
2023-03-07T23:43:57.845Z,99.90
2023-03-07T23:46:27.810Z,99.90
2023-03-07T23:48:56.782Z,99.90
2023-03-07T23:51:25.645Z,99.90
2023-03-07T23:53:55.460Z,99.90
2023-03-07T23:56:24.059Z,99.90
2023-03-07T23:58:52.910Z,99.90
